El Paso, TX (88568)

5:53 PM MDT on July 29, 2015 (GMT -0600)
Shock | | Change Station
CLOSE
Current Station
Personal Weather Station
Location: El Paso, TX
Elevation: 3924 ft
Nearby Weather Stations

Elev 3924 ft 31.76 °N, 106.33 °W | Updated 6 minutes ago

Mostly Cloudy
Mostly Cloudy
76.5 °F
Feels Like 78 °F
N
1.7
Wind Variable Wind from NNW

Today
High -- | Low -- °F
--% Chance of Precip.
Yesterday
High -- | Low -- °F
Precip. -- in
6:19 AM 8:04 PM
Waxing Gibbous, 97% visible
Pressure 29.85 in
Visibility 10.0 miles
Clouds Scattered Clouds 8000 ft
Mostly Cloudy 11000 ft
Mostly Cloudy 15000 ft
Heat Index 78 °F
Dew Point 65 °F
Humidity 67%
Rainfall 0.28 in
Snow Depth Not available.
UV 1 out of 12
Pollen 2.90 out of 12
Air Quality Not available.
Flu Activity Not available.
METAR KELP 292351Z 14019G25KT 10SM TS SCT080CB BKN110 BKN150 30/15 A3007 RMK AO2 PK WND 14033/2337 TSB40 SLP107 OCNL LTGCG SE TS SE MOV NW CB DSNT NW-N AND SE-SW SHRA VC SE T03000150 10344 20294 55009

More Conditions Fewer Conditions

Pressure 29.85 in
Visibility 10.0 miles
Clouds Scattered Clouds 8000 ft
Mostly Cloudy 11000 ft
Mostly Cloudy 15000 ft
Heat Index 78 °F
Dew Point 65 °F
Humidity 67%
Rainfall 0.28 in
Snow Depth Not available.
UV 1 out of 12
Pollen 2.90 out of 12
Air Quality Not available.
Flu Activity Not available.
METAR KELP 292351Z 14019G25KT 10SM TS SCT080CB BKN110 BKN150 30/15 A3007 RMK AO2 PK WND 14033/2337 TSB40 SLP107 OCNL LTGCG SE TS SE MOV NW CB DSNT NW-N AND SE-SW SHRA VC SE T03000150 10344 20294 55009

More Conditions Fewer Conditions

Nowcast | as of 4:44 PM MDT on July 29, 2015

Isolated showers and thunderstorms are moving into southwestern Hudspeth County and El Paso County. Additional development is expected over the next couple of hours with heavy rain being the main threat. An inch or two of rain within an hour is possible with the strongest cells which could lead to localized flooding. In addition to the heavy rain...wind gusts to 40 mph and half inch diameter hail are possible.

×

10-Day Weather Forecast

×

Almanac

Astronomy

Jul. 29, 2015 Rise Set
Actual Time
Civil Twilight
Nautical Twilight
Astronomical Twilight
Moon
Length of Visible Light
Length of Day
Tomorrow will be .
, % of the Moon is Illuminated

Today's Extremes

State Highs State Lows

Community

WunderPhotos

Upload Photos

1,842,196 photos uploaded!

WunderBlogs® & News

Nearby

Air Quality

  Air Quality AQ Index Pollutant
Not available.

Snow Depth

Station Depth Elevation

Earthquake Activity

City Distance Mag. Time & Date
Minimum magnitude displayed is 2.5.

Coastal Water Temperatures

Place Temperature

Stations

Nearby Weather Stations

Station Location Temp. Windchill Dew Point Humidity Wind Precip. Elev Updated Type